Time;durP1;ratioP1;P1;durP2;ratioP2;P2;SDS_P1;SDS_P2;PMS_P1;PMS_P2;Temp;Humidity;BMP_temperature;BMP_pressure;BME280_temperature;BME280_humidity;BME280_pressure;Samples;Min_cycle;Max_cycle;Signal;HPM_P1;HPM_P2
2022/08/14 00:00:40;;;;;;;1.88;1.70;;;15.90;1.90;;;;;;5083184;28;34185;-74
2022/08/14 00:03:05;;;;;;;2.95;1.95;;;15.90;2.00;;;;;;5087908;28;34177;-74
2022/08/14 00:05:32;;;;;;;1.80;1.70;;;15.80;2.00;;;;;;5086934;28;36756;-74
2022/08/14 00:07:58;;;;;;;1.80;1.70;;;15.80;2.10;;;;;;5087484;28;34113;-74
2022/08/14 00:10:24;;;;;;;2.33;2.00;;;15.70;2.20;;;;;;5106307;28;34152;-74
2022/08/14 00:12:53;;;;;;;1.80;1.70;;;15.70;2.30;;;;;;5105725;28;34193;-74
2022/08/14 00:15:31;;;;;;;1.90;1.80;;;15.60;2.90;;;;;;5070629;28;36138;-74
2022/08/14 00:17:58;;;;;;;2.05;1.63;;;15.60;5.00;;;;;;5087039;28;34211;-74
2022/08/14 00:20:27;;;;;;;4.68;2.08;;;15.60;2.70;;;;;;5101423;27;34334;-74
2022/08/14 00:22:53;;;;;;;4.55;2.22;;;15.50;3.20;;;;;;5105152;28;34115;-74
2022/08/14 00:25:20;;;;;;;3.35;2.13;;;15.40;2.90;;;;;;5106311;27;34644;-74
2022/08/14 00:27:46;;;;;;;2.20;2.00;;;15.40;3.30;;;;;;5090619;28;34323;-74
2022/08/14 00:30:13;;;;;;;1.95;1.85;;;15.40;2.90;;;;;;5086643;27;34148;-74
2022/08/14 00:32:40;;;;;;;2.10;1.90;;;15.40;3.10;;;;;;5072696;28;34474;-74
2022/08/14 00:35:07;;;;;;;2.25;1.77;;;15.30;3.10;;;;;;5104577;28;34161;-73
2022/08/14 00:37:36;;;;;;;2.90;1.92;;;15.20;3.30;;;;;;5087542;28;34174;-73
2022/08/14 00:40:04;;;;;;;3.40;1.85;;;15.20;3.30;;;;;;5092128;28;34158;-75
2022/08/14 00:42:30;;;;;;;1.83;1.73;;;15.20;3.50;;;;;;5105818;28;34187;-74
2022/08/14 00:44:56;;;;;;;2.13;1.83;;;15.10;3.20;;;;;;5104738;28;35028;-74
2022/08/14 00:47:23;;;;;;;2.15;1.83;;;15.10;3.40;;;;;;5092670;28;34209;-74
2022/08/14 00:49:52;;;;;;;2.30;2.10;;;15.10;3.50;;;;;;5104872;28;34307;-74
2022/08/14 00:52:19;;;;;;;2.63;1.73;;;15.10;3.60;;;;;;5086932;28;34074;-74
2022/08/14 00:54:52;;;;;;;2.28;1.88;;;15.00;3.70;;;;;;5069617;28;34984;-74
2022/08/14 00:57:23;;;;;;;4.53;2.10;;;15.00;4.00;;;;;;5058889;28;34222;-74
2022/08/14 00:59:50;;;;;;;2.78;2.00;;;15.00;3.90;;;;;;5105075;28;34165;-74
2022/08/14 01:02:23;;;;;;;1.98;1.80;;;14.90;3.80;;;;;;5085886;28;35717;-74
2022/08/14 01:04:52;;;;;;;2.63;1.65;;;14.90;4.30;;;;;;5050617;28;35602;-74
2022/08/14 01:07:19;;;;;;;2.55;2.08;;;14.80;4.30;;;;;;5066068;28;34206;-74
2022/08/14 01:09:57;;;;;;;2.03;1.90;;;14.70;4.20;;;;;;5053170;28;34121;-74
2022/08/14 01:12:25;;;;;;;1.90;1.80;;;14.70;7.20;;;;;;5081310;28;34296;-74
2022/08/14 01:14:53;;;;;;;2.35;2.10;;;14.60;4.60;;;;;;5077814;28;36717;-74
2022/08/14 01:17:21;;;;;;;2.83;2.08;;;14.50;4.40;;;;;;5118924;27;34088;-75
2022/08/14 01:22:35;;;;;;;4.40;2.10;;;14.40;4.80;;;;;;5090273;28;34535;-74
2022/08/14 01:25:02;;;;;;;1.90;1.80;;;14.40;4.80;;;;;;5104420;28;34216;-74
2022/08/14 01:27:29;;;;;;;3.20;2.00;;;14.40;4.80;;;;;;5081433;28;34478;-74
2022/08/14 01:29:57;;;;;;;2.70;1.98;;;14.40;4.90;;;;;;5086000;28;34097;-74
2022/08/14 01:32:23;;;;;;;2.22;2.05;;;14.40;5.30;;;;;;5086566;28;34167;-74
2022/08/14 01:34:54;;;;;;;2.42;2.22;;;14.40;5.00;;;;;;5094192;28;34241;-74
2022/08/14 01:37:23;;;;;;;2.10;1.90;;;14.30;6.20;;;;;;5049228;28;34086;-74
2022/08/14 01:39:50;;;;;;;2.85;1.95;;;14.30;5.00;;;;;;5069865;28;34331;-74
2022/08/14 01:42:17;;;;;;;2.45;2.25;;;14.30;5.10;;;;;;5104157;28;34201;-74
2022/08/14 01:44:49;;;;;;;2.28;2.08;;;14.20;5.20;;;;;;5071911;28;36821;-74
2022/08/14 01:47:17;;;;;;;2.65;2.20;;;14.20;5.10;;;;;;5098064;28;34368;-74
2022/08/14 01:49:44;;;;;;;2.20;2.00;;;14.20;5.20;;;;;;5103588;28;34115;-74
2022/08/14 01:52:11;;;;;;;3.63;2.25;;;14.10;5.30;;;;;;5086209;28;34155;-75
2022/08/14 01:54:38;;;;;;;2.40;2.20;;;14.10;5.40;;;;;;5103813;28;34311;-74
2022/08/14 01:57:09;;;;;;;2.65;2.35;;;14.00;5.60;;;;;;5085652;28;35182;-74
2022/08/14 01:59:36;;;;;;;2.40;2.20;;;14.00;5.60;;;;;;5094451;28;34197;-74
2022/08/14 02:02:12;;;;;;;2.35;2.15;;;13.90;5.80;;;;;;5103544;27;34374;-73
2022/08/14 02:04:39;;;;;;;2.28;2.08;;;13.90;6.10;;;;;;5044865;28;35952;-74
2022/08/14 02:07:08;;;;;;;2.65;2.45;;;13.90;5.90;;;;;;5067307;28;34113;-74
2022/08/14 02:09:37;;;;;;;2.40;2.20;;;13.90;6.10;;;;;;5084804;28;34452;-74
2022/08/14 02:12:05;;;;;;;2.75;2.55;;;13.80;6.10;;;;;;5084858;28;34359;-74
2022/08/14 02:14:32;;;;;;;3.40;2.10;;;13.80;6.20;;;;;;5067059;28;35760;-74
2022/08/14 02:16:59;;;;;;;2.47;2.28;;;13.80;6.30;;;;;;5084418;28;34180;-74
2022/08/14 02:19:28;;;;;;;2.80;2.38;;;13.70;6.20;;;;;;5083694;28;34143;-74
2022/08/14 02:21:57;;;;;;;2.65;2.45;;;13.70;6.50;;;;;;5066789;28;34171;-74
2022/08/14 02:24:27;;;;;;;2.38;2.17;;;13.70;6.80;;;;;;5084610;28;35810;-74
2022/08/14 02:26:56;;;;;;;2.55;2.28;;;13.70;6.70;;;;;;5084352;28;34101;-74
2022/08/14 02:29:24;;;;;;;2.45;2.25;;;13.60;6.40;;;;;;5102263;28;34125;-74
2022/08/14 02:31:53;;;;;;;3.05;2.30;;;13.60;6.70;;;;;;5093381;28;34253;-74
2022/08/14 02:34:28;;;;;;;2.42;2.22;;;13.60;7.00;;;;;;5092600;28;35282;-73
2022/08/14 02:36:58;;;;;;;2.90;2.65;;;13.50;8.20;;;;;;5100945;28;34239;-74
2022/08/14 02:39:26;;;;;;;2.55;2.35;;;13.50;7.80;;;;;;5084209;28;34171;-74
2022/08/14 02:41:55;;;;;;;2.38;2.17;;;13.40;6.90;;;;;;5083207;28;34448;-74
2022/08/14 02:44:21;;;;;;;3.20;2.20;;;13.40;7.00;;;;;;5083041;28;36647;-73
2022/08/14 02:46:50;;;;;;;2.65;2.35;;;13.40;7.00;;;;;;5082892;28;34343;-74
2022/08/14 02:49:16;;;;;;;2.20;2.10;;;13.30;7.20;;;;;;5083758;28;34407;-74
2022/08/14 02:51:47;;;;;;;2.90;2.65;;;13.40;7.20;;;;;;5050321;28;34188;-74
2022/08/14 02:54:13;;;;;;;3.00;2.80;;;13.40;8.40;;;;;;5086739;28;34332;-74
2022/08/14 02:56:39;;;;;;;2.40;2.20;;;13.30;7.30;;;;;;5086857;28;34325;-74
2022/08/14 02:59:08;;;;;;;2.43;2.23;;;13.30;7.30;;;;;;4909679;28;5536104;-74
2022/08/14 03:01:35;;;;;;;2.50;2.30;;;13.20;7.50;;;;;;5106843;28;35025;-74
2022/08/14 03:04:04;;;;;;;2.58;2.38;;;13.20;7.40;;;;;;5106483;28;34242;-73
2022/08/14 03:06:30;;;;;;;2.72;2.42;;;13.20;7.50;;;;;;5089403;28;34425;-74
2022/08/14 03:08:57;;;;;;;3.08;2.75;;;13.10;7.50;;;;;;5099823;28;34166;-74
2022/08/14 03:11:25;;;;;;;2.70;2.50;;;13.10;7.70;;;;;;5088727;28;34276;-74
2022/08/14 03:13:51;;;;;;;2.72;2.53;;;13.10;7.70;;;;;;5088021;28;35913;-73
2022/08/14 03:16:22;;;;;;;2.92;2.72;;;13.00;7.80;;;;;;5087730;28;34309;-74
2022/08/14 03:18:52;;;;;;;3.05;2.75;;;12.90;8.40;;;;;;5105904;28;34293;-74
2022/08/14 03:21:20;;;;;;;2.72;2.53;;;13.00;8.30;;;;;;5106489;28;34312;-74
2022/08/14 03:23:49;;;;;;;2.38;2.25;;;13.00;8.20;;;;;;5070969;28;35589;-73
2022/08/14 03:26:19;;;;;;;2.88;2.67;;;12.90;8.60;;;;;;5071912;28;34163;-73
2022/08/14 03:28:48;;;;;;;2.70;2.50;;;12.90;8.60;;;;;;5071255;28;34073;-73
2022/08/14 03:31:17;;;;;;;2.92;2.67;;;12.90;8.70;;;;;;5070807;28;34433;-73
2022/08/14 03:33:43;;;;;;;3.08;2.72;;;12.80;8.20;;;;;;5087325;28;36385;-73
2022/08/14 03:36:13;;;;;;;2.60;2.33;;;12.80;8.40;;;;;;5088332;28;34516;-74
2022/08/14 03:38:42;;;;;;;3.72;2.83;;;12.80;8.70;;;;;;5070834;28;34207;-74
2022/08/14 03:41:15;;;;;;;3.92;2.70;;;12.80;8.40;;;;;;5081933;28;34437;-73
2022/08/14 03:43:43;;;;;;;3.00;2.70;;;12.80;8.60;;;;;;5098326;28;35007;-73
2022/08/14 03:46:11;;;;;;;3.30;2.92;;;12.80;9.10;;;;;;5084930;28;34338;-74
2022/08/14 03:48:40;;;;;;;3.30;3.00;;;12.70;8.70;;;;;;5087824;28;35138;-74
2022/08/14 03:51:08;;;;;;;5.65;3.30;;;12.70;8.70;;;;;;5069327;28;34139;-74
2022/08/14 03:53:36;;;;;;;3.72;3.13;;;12.70;8.90;;;;;;5069159;28;35734;-73
2022/08/14 03:56:06;;;;;;;7.80;2.70;;;12.70;9.00;;;;;;5082847;28;34449;-74
2022/08/14 03:58:33;;;;;;;2.88;2.67;;;12.70;9.70;;;;;;5087246;28;34265;-74
2022/08/14 04:00:59;;;;;;;2.92;2.72;;;12.60;9.50;;;;;;5104885;28;34951;-74
2022/08/14 04:03:25;;;;;;;3.22;2.75;;;12.60;9.00;;;;;;5105484;28;34476;-74
2022/08/14 04:05:52;;;;;;;2.63;2.42;;;12.60;9.10;;;;;;5104910;27;34439;-74
2022/08/14 04:08:19;;;;;;;4.85;3.03;;;12.60;9.40;;;;;;5104989;28;34243;-74
2022/08/14 04:10:46;;;;;;;2.92;2.60;;;12.50;9.20;;;;;;5105355;28;34152;-74
2022/08/14 04:13:17;;;;;;;4.38;2.80;;;12.50;9.10;;;;;;5085589;28;35750;-73
2022/08/14 04:15:44;;;;;;;2.72;2.53;;;12.50;9.90;;;;;;5087839;28;35591;-74
2022/08/14 04:18:10;;;;;;;3.35;3.05;;;12.50;9.50;;;;;;5053817;28;34346;-73
2022/08/14 04:20:39;;;;;;;4.32;2.70;;;12.50;9.20;;;;;;5086995;28;34494;-73
2022/08/14 04:23:05;;;;;;;3.75;3.00;;;12.50;9.50;;;;;;5087756;27;34077;-73
2022/08/14 04:25:35;;;;;;;3.33;2.90;;;12.50;9.40;;;;;;5105499;28;34395;-73
2022/08/14 04:28:05;;;;;;;2.80;2.60;;;12.50;9.60;;;;;;5087082;28;34147;-73
2022/08/14 04:30:37;;;;;;;3.85;2.83;;;12.50;10.40;;;;;;5070955;28;34457;-73
2022/08/14 04:33:24;;;;;;;3.08;2.88;;;12.50;9.60;;;;;;5074982;28;35829;-74
2022/08/14 04:35:51;;;;;;;3.35;3.05;;;12.50;9.50;;;;;;5082941;28;34370;-73
2022/08/14 04:46:09;;;;;;;3.30;2.97;;;12.50;9.80;;;;;;5103746;28;35027;-74
2022/08/14 04:48:35;;;;;;;3.65;3.35;;;12.50;9.90;;;;;;5085198;28;35290;-73
2022/08/14 04:51:04;;;;;;;3.42;3.13;;;12.60;9.60;;;;;;5105594;28;34519;-74
2022/08/14 04:53:30;;;;;;;3.42;3.13;;;12.60;9.60;;;;;;5104146;28;34424;-74
2022/08/14 04:55:57;;;;;;;3.75;3.03;;;12.60;9.50;;;;;;5070181;28;34195;-74
2022/08/14 04:58:26;;;;;;;4.75;3.63;;;12.70;9.60;;;;;;5087512;28;34205;-74
2022/08/14 05:00:55;;;;;;;3.67;3.10;;;12.70;9.80;;;;;;5083807;28;34343;-74
2022/08/14 05:03:25;;;;;;;3.63;3.33;;;12.80;9.60;;;;;;5085921;28;36858;-74
2022/08/14 05:05:55;;;;;;;3.67;3.22;;;12.80;9.70;;;;;;5087139;28;34517;-74
2022/08/14 05:08:22;;;;;;;3.70;3.40;;;12.80;9.90;;;;;;5105152;28;34155;-73
2022/08/14 05:10:51;;;;;;;3.67;3.38;;;12.90;9.60;;;;;;5086496;28;34048;-74
2022/08/14 05:13:19;;;;;;;3.47;3.17;;;12.90;10.10;;;;;;5086772;28;34591;-74
2022/08/14 05:15:46;;;;;;;4.32;3.35;;;12.90;9.80;;;;;;5064916;28;34814;-74
2022/08/14 05:18:14;;;;;;;3.50;3.20;;;13.00;9.60;;;;;;5066128;28;34255;-74
2022/08/14 05:20:45;;;;;;;3.80;3.40;;;13.10;9.70;;;;;;5083700;28;34314;-74
2022/08/14 05:23:13;;;;;;;4.35;3.58;;;13.10;9.80;;;;;;5086347;28;35534;-73
2022/08/14 05:25:40;;;;;;;3.92;3.50;;;13.10;9.70;;;;;;5086089;28;34064;-74
2022/08/14 05:28:17;;;;;;;3.90;3.60;;;13.20;9.60;;;;;;5104590;27;34068;-74
2022/08/14 05:30:45;;;;;;;4.47;3.63;;;13.30;11.80;;;;;;5100479;27;34219;-74
2022/08/14 05:33:13;;;;;;;3.90;3.60;;;13.40;9.80;;;;;;5085203;28;35779;-74
2022/08/14 05:35:39;;;;;;;3.55;3.25;;;13.40;9.70;;;;;;5086582;28;34127;-74
2022/08/14 05:38:08;;;;;;;3.70;3.40;;;13.50;9.70;;;;;;5104565;28;34080;-73
2022/08/14 05:40:35;;;;;;;3.65;3.35;;;13.50;10.10;;;;;;5104689;28;34322;-73
2022/08/14 05:43:01;;;;;;;4.50;4.10;;;13.60;9.70;;;;;;5104419;28;35293;-74
2022/08/14 05:45:27;;;;;;;5.25;4.18;;;13.70;9.70;;;;;;5089728;27;34183;-74
2022/08/14 05:47:53;;;;;;;9.60;4.15;;;13.70;9.70;;;;;;5097879;28;34130;-74
2022/08/14 05:50:20;;;;;;;5.90;4.85;;;13.90;10.10;;;;;;5086044;28;34214;-74
2022/08/14 05:52:50;;;;;;;4.43;3.85;;;14.00;9.60;;;;;;5086263;28;35625;-74
2022/08/14 05:55:16;;;;;;;4.45;4.05;;;14.10;9.80;;;;;;5087147;28;34290;-74
2022/08/14 05:57:59;;;;;;;4.32;3.92;;;14.20;9.50;;;;;;5102307;27;34426;-74
2022/08/14 06:00:30;;;;;;;10.38;3.75;;;14.30;12.90;;;;;;5104514;28;34201;-74
2022/08/14 06:02:58;;;;;;;4.38;3.97;;;14.50;10.60;;;;;;5068902;28;35975;-74
2022/08/14 06:05:25;;;;;;;5.38;3.85;;;14.60;9.70;;;;;;5085244;28;34551;-74
2022/08/14 06:07:52;;;;;;;4.28;3.78;;;14.80;9.50;;;;;;5085318;28;34214;-74
2022/08/14 06:10:18;;;;;;;4.22;3.80;;;15.00;9.50;;;;;;5085881;28;34080;-74
2022/08/14 06:12:44;;;;;;;6.32;5.63;;;15.20;9.20;;;;;;5085406;27;36090;-74
2022/08/14 06:15:10;;;;;;;4.32;3.92;;;15.40;9.00;;;;;;5085481;28;34287;-75
2022/08/14 06:17:54;;;;;;;6.72;3.38;;;15.80;8.70;;;;;;5068962;28;34278;-74
2022/08/14 06:20:20;;;;;;;5.45;3.40;;;16.50;11.20;;;;;;5092907;28;34292;-74
2022/08/14 06:22:46;;;;;;;3.72;3.30;;;17.00;7.20;;;;;;5068772;28;35827;-74
2022/08/14 06:25:14;;;;;;;6.30;3.60;;;17.40;6.80;;;;;;5085723;28;34322;-74
2022/08/14 06:27:43;;;;;;;5.60;3.10;;;17.90;6.10;;;;;;5103867;27;34186;-74
2022/08/14 06:30:12;;;;;;;3.80;3.47;;;18.50;5.60;;;;;;5084724;28;34427;-74
2022/08/14 06:32:38;;;;;;;3.80;3.22;;;19.10;4.90;;;;;;5068942;28;35834;-74
2022/08/14 06:35:07;;;;;;;3.97;3.58;;;20.00;3.50;;;;;;5085867;28;34075;-75
2022/08/14 06:37:50;;;;;;;3.97;3.60;;;20.90;2.70;;;;;;5063803;28;34277;-75
2022/08/14 06:40:19;;;;;;;3.40;3.10;;;21.80;1.30;;;;;;5077138;28;34281;-75
2022/08/14 06:42:46;;;;;;;4.90;3.33;;;22.50;1.00;;;;;;5082135;28;35794;-75
2022/08/14 06:45:13;;;;;;;3.75;3.30;;;23.30;1.00;;;;;;5080068;28;34409;-75
2022/08/14 06:47:49;;;;;;;3.65;3.17;;;23.90;1.00;;;;;;5058207;28;34230;-75
2022/08/14 06:50:18;;;;;;;4.22;2.63;;;24.70;1.00;;;;;;5094986;27;34649;-74
2022/08/14 06:52:44;;;;;;;4.38;2.97;;;25.40;1.00;;;;;;5078080;28;35701;-74
2022/08/14 06:55:12;;;;;;;3.42;3.13;;;25.70;1.00;;;;;;5091231;28;34364;-74
2022/08/14 06:57:41;;;;;;;3.17;2.80;;;26.10;1.00;;;;;;5075452;28;34391;-74
2022/08/14 07:00:11;;;;;;;5.38;2.67;;;26.50;1.00;;;;;;5062354;28;34251;-74
2022/08/14 07:08:03;;;;;;;3.75;3.22;;;26.90;1.00;;;;;;5083085;28;34368;-74
2022/08/14 07:10:29;;;;;;;5.70;2.80;;;27.10;1.00;;;;;;5081382;28;34244;-74
2022/08/14 07:12:55;;;;;;;4.15;2.95;;;27.40;1.00;;;;;;5089607;28;35581;-74
2022/08/14 07:15:22;;;;;;;3.25;2.90;;;27.60;1.00;;;;;;5081407;28;34328;-76
2022/08/14 07:17:50;;;;;;;37.15;4.13;;;27.70;1.00;;;;;;5080865;28;34340;-75
2022/08/14 07:20:19;;;;;;;4.28;3.17;;;27.50;1.00;;;;;;5064743;28;34448;-74
2022/08/14 07:22:46;;;;;;;3.30;2.90;;;27.10;1.00;;;;;;5098493;28;35611;-74
2022/08/14 07:25:13;;;;;;;3.00;2.50;;;26.70;1.00;;;;;;5098279;28;34096;-75
2022/08/14 07:27:40;;;;;;;2.92;2.72;;;26.50;1.00;;;;;;5098919;28;34463;-74
2022/08/14 07:30:06;;;;;;;8.00;3.00;;;26.80;1.00;;;;;;5081427;28;34138;-75
2022/08/14 07:32:33;;;;;;;6.18;2.63;;;27.10;1.00;;;;;;5082033;28;34169;-74
2022/08/14 07:34:59;;;;;;;3.67;2.90;;;27.30;1.00;;;;;;5081415;28;34178;-75
2022/08/14 07:37:26;;;;;;;3.50;3.00;;;27.50;1.00;;;;;;5087960;28;34410;-75
2022/08/14 07:39:57;;;;;;;6.28;3.10;;;27.60;1.00;;;;;;5087192;28;34510;-75
2022/08/14 07:42:24;;;;;;;3.20;2.90;;;27.70;1.00;;;;;;5087827;28;36768;-74
2022/08/14 07:44:50;;;;;;;3.58;3.28;;;27.90;1.00;;;;;;5071854;28;34167;-74
2022/08/14 07:47:16;;;;;;;4.75;3.55;;;28.00;1.00;;;;;;5089610;28;34437;-75
2022/08/14 07:50:07;;;;;;;5.05;3.40;;;28.30;1.00;;;;;;5085983;27;34617;-75
2022/08/14 07:52:34;;;;;;;5.00;3.28;;;28.70;1.00;;;;;;5086590;27;35516;-77
2022/08/14 07:55:01;;;;;;;3.70;3.20;;;29.00;1.00;;;;;;5088110;28;34361;-76
2022/08/14 07:57:29;;;;;;;4.15;3.30;;;29.20;1.00;;;;;;5087335;28;34248;-76
2022/08/14 07:59:55;;;;;;;4.20;3.33;;;29.30;1.00;;;;;;5106195;27;34404;-76
2022/08/14 08:02:23;;;;;;;3.97;3.58;;;29.40;1.00;;;;;;5087800;28;35678;-76
2022/08/14 08:04:53;;;;;;;3.75;3.45;;;29.40;1.00;;;;;;5086265;28;34370;-77
2022/08/14 08:07:24;;;;;;;3.53;3.17;;;29.20;1.00;;;;;;5083062;28;34316;-76
2022/08/14 08:09:55;;;;;;;6.30;3.90;;;29.00;1.00;;;;;;5109022;28;34785;-73
2022/08/14 08:12:31;;;;;;;4.00;3.60;;;28.90;1.00;;;;;;5090843;27;35584;-74
2022/08/14 08:15:00;;;;;;;5.43;3.40;;;29.10;1.00;;;;;;5089807;28;34092;-74
2022/08/14 08:17:28;;;;;;;7.30;3.92;;;29.20;1.00;;;;;;5071018;28;35177;-75
2022/08/14 08:19:57;;;;;;;6.40;3.33;;;29.40;1.00;;;;;;5072112;27;34580;-74
2022/08/14 08:22:41;;;;;;;3.65;3.22;;;29.70;1.00;;;;;;5083925;28;35611;-75
2022/08/14 08:25:20;;;;;;;3.85;3.15;;;30.00;1.00;;;;;;5087865;28;33784;-74
2022/08/14 08:28:19;;;;;;;6.00;3.35;;;30.40;1.00;;;;;;5088913;28;35122;-75
2022/08/14 08:30:55;;;;;;;3.50;3.20;;;30.70;1.00;;;;;;5081292;28;34264;-74
2022/08/14 08:33:30;;;;;;;5.13;3.05;;;30.80;1.00;;;;;;5088321;28;36532;-74
2022/08/14 08:36:19;;;;;;;3.95;3.28;;;31.00;1.00;;;;;;5091902;28;34373;-74
2022/08/14 08:39:00;;;;;;;17.48;7.97;;;31.00;1.00;;;;;;5110839;28;34199;-75
2022/08/14 08:41:41;;;;;;;4.30;3.30;;;31.10;1.00;;;;;;5111110;27;34128;-74
2022/08/14 08:44:07;;;;;;;6.93;3.10;;;31.50;1.00;;;;;;5090747;27;36337;-74
2022/08/14 08:46:33;;;;;;;4.97;3.38;;;31.70;1.00;;;;;;5089435;28;34461;-75
2022/08/14 08:48:58;;;;;;;6.72;2.75;;;31.90;1.00;;;;;;5088796;28;34556;-74
2022/08/14 08:51:29;;;;;;;3.55;3.03;;;32.00;1.00;;;;;;5071131;28;34564;-74
2022/08/14 08:53:59;;;;;;;4.50;3.67;;;32.00;1.00;;;;;;5072165;28;36649;-74
2022/08/14 08:56:43;;;;;;;4.85;2.95;;;32.30;1.00;;;;;;5086647;28;33681;-74
2022/08/14 08:59:26;;;;;;;11.48;2.90;;;32.40;1.00;;;;;;5089060;28;34229;-75
2022/08/14 09:01:57;;;;;;;3.42;2.70;;;32.60;1.00;;;;;;5084228;27;34439;-75
2022/08/14 09:04:27;;;;;;;4.28;2.90;;;32.60;1.00;;;;;;5064515;28;35800;-74
2022/08/14 09:06:53;;;;;;;3.22;2.80;;;32.60;1.00;;;;;;5087276;28;34386;-74
2022/08/14 09:09:51;;;;;;;3.83;2.50;;;32.50;1.00;;;;;;5106223;28;34839;-75
2022/08/14 09:12:20;;;;;;;2.90;2.70;;;32.60;1.00;;;;;;5085604;28;34404;-74
2022/08/14 09:14:47;;;;;;;2.67;2.47;;;32.90;1.00;;;;;;5087986;28;36764;-75
2022/08/14 09:17:14;;;;;;;3.38;2.88;;;33.00;1.00;;;;;;5087240;28;34147;-75
2022/08/14 09:19:48;;;;;;;2.35;2.15;;;33.10;1.00;;;;;;5089060;28;34221;-74
2022/08/14 09:22:15;;;;;;;4.72;2.53;;;33.20;1.00;;;;;;5090438;28;34185;-75
2022/08/14 09:24:46;;;;;;;3.33;2.50;;;33.20;1.00;;;;;;5088574;28;34353;-75
2022/08/14 09:27:12;;;;;;;3.67;2.58;;;33.20;1.00;;;;;;5089374;28;34405;-75
2022/08/14 09:29:38;;;;;;;2.67;2.47;;;33.20;1.00;;;;;;5088831;28;34392;-75
2022/08/14 09:32:06;;;;;;;2.67;2.20;;;33.10;1.00;;;;;;5068515;28;34673;-74
2022/08/14 09:35:00;;;;;;;2.22;2.05;;;33.20;1.00;;;;;;5087872;28;35676;-75
2022/08/14 09:37:37;;;;;;;2.35;2.15;;;33.00;1.00;;;;;;5093704;28;34229;-75
2022/08/14 09:40:18;;;;;;;2.20;2.10;;;33.00;1.00;;;;;;5087190;28;34231;-74
2022/08/14 09:42:54;;;;;;;1.90;1.75;;;32.90;1.00;;;;;;5095362;27;34375;-75
2022/08/14 09:45:51;;;;;;;5.97;1.92;;;32.90;1.00;;;;;;5080975;28;36300;-75
2022/08/14 09:48:20;;;;;;;2.10;1.92;;;32.90;1.00;;;;;;5100907;28;34286;-75
2022/08/14 09:50:50;;;;;;;2.13;2.00;;;33.10;1.00;;;;;;5068258;28;34148;-75
2022/08/14 09:53:36;;;;;;;4.35;1.85;;;33.30;1.00;;;;;;5090137;27;34188;-76
2022/08/14 09:56:04;;;;;;;2.80;1.98;;;33.50;1.00;;;;;;5100058;27;34356;-76
2022/08/14 09:58:46;;;;;;;2.53;1.77;;;33.70;1.00;;;;;;5087230;27;34638;-75
2022/08/14 10:01:14;;;;;;;3.17;1.73;;;34.10;1.00;;;;;;5090253;28;34150;-74
2022/08/14 10:03:56;;;;;;;4.55;1.70;;;34.40;1.00;;;;;;5089071;27;34623;-75
2022/08/14 10:06:26;;;;;;;1.80;1.70;;;34.70;1.00;;;;;;5091864;28;35553;-76
2022/08/14 10:08:59;;;;;;;5.30;1.80;;;34.80;1.00;;;;;;5086724;28;34492;-74
2022/08/14 10:11:28;;;;;;;2.10;1.65;;;34.90;1.00;;;;;;5077258;28;34292;-75
2022/08/14 10:14:10;;;;;;;2.33;1.75;;;35.10;1.00;;;;;;5097482;27;34474;-76
2022/08/14 10:16:43;;;;;;;2.10;1.90;;;34.80;1.00;;;;;;5092817;28;36344;-75
2022/08/14 10:19:12;;;;;;;1.73;1.60;;;34.70;1.00;;;;;;5084832;28;34341;-74
2022/08/14 10:21:40;;;;;;;1.90;1.80;;;34.70;1.00;;;;;;5087397;28;34419;-76
2022/08/14 10:24:09;;;;;;;1.83;1.73;;;34.70;1.00;;;;;;5068541;28;34559;-75
2022/08/14 10:26:36;;;;;;;14.23;2.10;;;34.80;1.00;;;;;;5089057;28;36041;-74
2022/08/14 10:29:09;;;;;;;2.45;1.90;;;34.80;1.00;;;;;;5088212;27;34103;-75
2022/08/14 10:31:36;;;;;;;4.82;1.67;;;34.90;1.00;;;;;;5071615;28;34417;-75
2022/08/14 10:34:07;;;;;;;2.38;2.00;;;35.00;1.00;;;;;;5087977;28;34599;-74
2022/08/14 10:36:35;;;;;;;3.33;3.03;;;35.10;1.00;;;;;;5098623;28;34329;-76
2022/08/14 10:39:07;;;;;;;3.83;1.90;;;35.10;1.00;;;;;;5111860;27;34304;-74
2022/08/14 10:41:39;;;;;;;2.45;1.90;;;35.20;1.00;;;;;;5105150;28;34083;-75
2022/08/14 10:44:15;;;;;;;2.25;1.70;;;35.30;1.00;;;;;;5086378;28;34416;-75
2022/08/14 10:46:44;;;;;;;2.17;1.75;;;35.20;1.00;;;;;;5087607;28;35554;-76
2022/08/14 10:49:25;;;;;;;2.78;1.60;;;35.10;1.00;;;;;;5105176;27;34173;-75
2022/08/14 10:52:08;;;;;;;2.22;2.05;;;35.20;1.00;;;;;;5071460;28;34166;-76
2022/08/14 10:54:44;;;;;;;3.05;1.90;;;35.20;1.00;;;;;;5088044;28;34452;-75
2022/08/14 10:57:27;;;;;;;2.08;1.83;;;35.20;1.00;;;;;;5088033;28;35546;-75
2022/08/14 10:59:59;;;;;;;3.17;1.80;;;35.30;1.00;;;;;;5100061;27;34336;-75
2022/08/14 11:02:30;;;;;;;2.17;1.70;;;35.70;1.00;;;;;;5086229;27;34426;-74
2022/08/14 11:05:04;;;;;;;3.05;1.85;;;35.70;1.00;;;;;;5102381;27;34939;-74
2022/08/14 11:07:31;;;;;;;4.07;2.03;;;35.80;1.00;;;;;;5086762;28;35328;-75
2022/08/14 11:10:02;;;;;;;2.00;1.90;;;35.80;1.00;;;;;;5103109;27;34170;-76
2022/08/14 11:12:45;;;;;;;2.08;1.98;;;35.70;1.00;;;;;;5085057;28;34335;-77
2022/08/14 11:15:15;;;;;;;5.75;2.10;;;35.70;1.00;;;;;;5084604;28;34133;-75
2022/08/14 11:17:42;;;;;;;4.28;2.15;;;35.90;1.00;;;;;;5061771;27;35945;-75
2022/08/14 11:20:10;;;;;;;3.92;1.80;;;36.10;1.00;;;;;;5123006;27;34323;-75
2022/08/14 11:22:43;;;;;;;3.05;1.60;;;36.30;1.00;;;;;;5091701;27;34336;-76
2022/08/14 11:25:14;;;;;;;2.60;2.13;;;36.40;1.00;;;;;;5089246;27;34258;-75
2022/08/14 11:27:43;;;;;;;2.00;1.90;;;36.50;1.00;;;;;;5103600;27;35552;-76
2022/08/14 11:30:15;;;;;;;1.70;1.60;;;36.50;1.00;;;;;;5087624;27;34373;-77
2022/08/14 11:32:47;;;;;;;3.22;1.75;;;36.30;1.00;;;;;;5099001;27;34567;-75
2022/08/14 11:35:16;;;;;;;1.70;1.60;;;36.30;1.00;;;;;;5072563;28;34421;-76
2022/08/14 11:38:00;;;;;;;2.50;2.08;;;36.10;1.00;;;;;;5053286;28;35638;-77
2022/08/14 11:40:30;;;;;;;1.88;1.60;;;36.20;1.00;;;;;;5083573;28;34230;-77
2022/08/14 11:42:57;;;;;;;1.80;1.70;;;36.20;1.00;;;;;;5066688;28;34584;-76
2022/08/14 11:45:27;;;;;;;2.00;1.90;;;36.30;1.00;;;;;;5084823;28;34139;-76
2022/08/14 11:47:55;;;;;;;2.35;1.70;;;36.20;1.00;;;;;;5069254;28;34621;-76
2022/08/14 11:50:26;;;;;;;3.08;1.90;;;36.30;1.00;;;;;;5082714;28;34281;-76
2022/08/14 11:52:53;;;;;;;1.80;1.70;;;36.50;1.00;;;;;;5067932;28;34238;-76
2022/08/14 11:55:20;;;;;;;5.07;1.88;;;36.50;1.00;;;;;;5084472;28;34229;-75
2022/08/14 11:57:46;;;;;;;2.65;1.73;;;36.40;1.00;;;;;;5065024;28;35660;-75
2022/08/14 12:00:16;;;;;;;1.77;1.65;;;36.40;1.00;;;;;;5087088;28;34322;-75
2022/08/14 12:02:53;;;;;;;1.85;1.75;;;36.30;1.00;;;;;;5083906;28;34214;-77
2022/08/14 12:05:38;;;;;;;1.70;1.60;;;36.20;1.00;;;;;;5067115;28;34554;-76
2022/08/14 12:08:06;;;;;;;2.30;1.60;;;36.10;1.00;;;;;;5057076;28;36094;-74
2022/08/14 12:10:33;;;;;;;2.13;1.92;;;36.10;1.00;;;;;;5079144;28;34242;-74
2022/08/14 12:13:17;;;;;;;1.90;1.80;;;36.10;1.00;;;;;;5068893;28;34664;-76
2022/08/14 12:15:48;;;;;;;1.90;1.80;;;36.10;1.00;;;;;;5083938;28;34426;-75
2022/08/14 12:18:15;;;;;;;1.70;1.60;;;36.20;1.00;;;;;;5069653;28;34949;-75
2022/08/14 12:20:42;;;;;;;1.80;1.70;;;36.10;1.00;;;;;;5069343;28;34092;-74
2022/08/14 12:23:22;;;;;;;2.42;1.60;;;36.10;1.00;;;;;;5080053;28;34403;-76
2022/08/14 12:25:49;;;;;;;2.72;1.90;;;36.20;1.00;;;;;;5050754;28;34120;-75
2022/08/14 12:28:15;;;;;;;1.63;1.50;;;36.30;1.00;;;;;;5055802;28;35887;-75
2022/08/14 12:30:44;;;;;;;2.08;1.90;;;36.40;1.00;;;;;;5088254;28;36083;-75
2022/08/14 12:33:28;;;;;;;2.25;1.95;;;36.50;1.00;;;;;;5067794;28;34721;-76
2022/08/14 12:36:00;;;;;;;5.95;2.30;;;36.70;1.00;;;;;;5062705;28;34309;-77
2022/08/14 12:38:32;;;;;;;1.95;1.70;;;36.60;1.00;;;;;;5065882;28;34402;-76
2022/08/14 12:41:00;;;;;;;1.70;1.60;;;36.50;1.00;;;;;;5065532;28;34452;-75
2022/08/14 12:43:28;;;;;;;1.70;1.60;;;36.50;1.00;;;;;;5081689;28;34325;-76
2022/08/14 12:45:54;;;;;;;1.98;1.80;;;36.50;1.00;;;;;;5067567;28;34184;-76
2022/08/14 12:48:22;;;;;;;2.40;1.75;;;36.60;1.00;;;;;;5084100;28;35550;-76
2022/08/14 12:50:51;;;;;;;1.75;1.65;;;36.60;1.00;;;;;;5083695;28;34453;-75
2022/08/14 12:53:19;;;;;;;2.05;1.90;;;36.60;1.00;;;;;;5055558;28;34189;-75
2022/08/14 12:55:46;;;;;;;2.30;1.60;;;36.60;1.00;;;;;;5064299;28;34405;-75
2022/08/14 12:58:12;;;;;;;2.28;2.08;;;36.40;1.00;;;;;;5086621;28;35254;-77
2022/08/14 13:00:49;;;;;;;2.10;1.90;;;36.40;1.00;;;;;;5066225;28;34388;-75
2022/08/14 13:03:30;;;;;;;2.47;1.92;;;36.30;1.00;;;;;;5068845;28;34061;-74
2022/08/14 13:06:02;;;;;;;2.30;1.90;;;36.30;1.00;;;;;;5048851;28;34228;-75
2022/08/14 13:08:37;;;;;;;2.15;1.88;;;36.40;1.00;;;;;;5075018;28;35658;-75
2022/08/14 13:11:06;;;;;;;2.05;1.92;;;36.50;1.00;;;;;;5052900;28;34195;-77
2022/08/14 13:13:34;;;;;;;3.53;1.95;;;36.50;1.00;;;;;;5083674;28;34182;-75
2022/08/14 13:16:17;;;;;;;1.73;1.63;;;36.50;1.00;;;;;;5076837;28;34398;-75
2022/08/14 13:18:51;;;;;;;4.60;2.03;;;36.40;1.00;;;;;;5081695;28;34329;-75
2022/08/14 13:21:18;;;;;;;2.67;1.60;;;36.30;1.00;;;;;;5062578;28;34324;-75
2022/08/14 13:23:45;;;;;;;3.10;1.83;;;36.30;1.00;;;;;;5080788;28;34116;-75
2022/08/14 13:26:11;;;;;;;4.55;1.75;;;36.30;1.00;;;;;;5066524;28;34341;-76
2022/08/14 13:28:41;;;;;;;2.25;1.90;;;36.30;1.00;;;;;;5081476;28;34557;-75